sensor_id;sensor_type;location;lat;lon;timestamp;P1;durP1;ratioP1;P2;durP2;ratioP2
43771;SDS011;59066;54.782;32.024;2023-04-01T00:00:11;8.20;;;3.90;;
43771;SDS011;59066;54.782;32.024;2023-04-01T00:02:40;18.40;;;5.53;;
43771;SDS011;59066;54.782;32.024;2023-04-01T00:05:08;14.98;;;4.70;;
43771;SDS011;59066;54.782;32.024;2023-04-01T00:07:39;17.27;;;4.97;;
43771;SDS011;59066;54.782;32.024;2023-04-01T00:10:08;21.73;;;5.60;;
43771;SDS011;59066;54.782;32.024;2023-04-01T00:12:38;12.43;;;4.30;;
43771;SDS011;59066;54.782;32.024;2023-04-01T00:15:07;13.30;;;4.57;;
43771;SDS011;59066;54.782;32.024;2023-04-01T00:17:36;22.20;;;4.93;;
43771;SDS011;59066;54.782;32.024;2023-04-01T00:20:05;22.52;;;4.70;;
43771;SDS011;59066;54.782;32.024;2023-04-01T00:22:34;15.55;;;5.38;;
43771;SDS011;59066;54.782;32.024;2023-04-01T00:25:03;16.10;;;4.57;;
43771;SDS011;59066;54.782;32.024;2023-04-01T00:27:31;8.18;;;4.28;;
43771;SDS011;59066;54.782;32.024;2023-04-01T00:29:58;6.63;;;3.78;;
43771;SDS011;59066;54.782;32.024;2023-04-01T00:32:26;7.63;;;3.58;;
43771;SDS011;59066;54.782;32.024;2023-04-01T00:34:54;7.22;;;3.85;;
43771;SDS011;59066;54.782;32.024;2023-04-01T00:37:21;8.07;;;3.50;;
43771;SDS011;59066;54.782;32.024;2023-04-01T00:39:49;8.05;;;3.80;;
43771;SDS011;59066;54.782;32.024;2023-04-01T00:42:17;7.30;;;4.10;;
43771;SDS011;59066;54.782;32.024;2023-04-01T00:44:50;10.80;;;4.25;;
43771;SDS011;59066;54.782;32.024;2023-04-01T00:47:19;9.07;;;4.50;;
43771;SDS011;59066;54.782;32.024;2023-04-01T00:49:49;11.40;;;4.80;;
43771;SDS011;59066;54.782;32.024;2023-04-01T00:52:20;11.23;;;4.28;;
43771;SDS011;59066;54.782;32.024;2023-04-01T00:54:50;7.68;;;4.18;;
43771;SDS011;59066;54.782;32.024;2023-04-01T00:57:24;6.78;;;4.05;;
43771;SDS011;59066;54.782;32.024;2023-04-01T00:59:58;7.15;;;4.18;;
43771;SDS011;59066;54.782;32.024;2023-04-01T01:02:29;7.03;;;4.57;;
43771;SDS011;59066;54.782;32.024;2023-04-01T01:05:00;5.93;;;4.60;;
43771;SDS011;59066;54.782;32.024;2023-04-01T01:07:43;9.63;;;4.40;;
43771;SDS011;59066;54.782;32.024;2023-04-01T01:10:26;7.00;;;4.32;;
43771;SDS011;59066;54.782;32.024;2023-04-01T01:13:33;9.57;;;5.30;;
43771;SDS011;59066;54.782;32.024;2023-04-01T01:16:16;6.72;;;4.60;;
43771;SDS011;59066;54.782;32.024;2023-04-01T01:18:54;7.45;;;4.63;;
43771;SDS011;59066;54.782;32.024;2023-04-01T01:27:38;7.40;;;4.30;;
43771;SDS011;59066;54.782;32.024;2023-04-01T01:38:27;7.82;;;5.30;;
43771;SDS011;59066;54.782;32.024;2023-04-01T01:40:59;9.15;;;5.43;;
43771;SDS011;59066;54.782;32.024;2023-04-01T01:43:31;8.93;;;5.35;;
43771;SDS011;59066;54.782;32.024;2023-04-01T01:46:13;7.40;;;4.63;;
43771;SDS011;59066;54.782;32.024;2023-04-01T01:48:44;9.85;;;4.78;;
43771;SDS011;59066;54.782;32.024;2023-04-01T01:51:14;8.02;;;5.07;;
43771;SDS011;59066;54.782;32.024;2023-04-01T01:53:42;8.77;;;5.63;;
43771;SDS011;59066;54.782;32.024;2023-04-01T01:56:11;7.40;;;5.20;;
43771;SDS011;59066;54.782;32.024;2023-04-01T01:58:44;8.30;;;5.10;;
43771;SDS011;59066;54.782;32.024;2023-04-01T02:01:23;8.02;;;5.38;;
43771;SDS011;59066;54.782;32.024;2023-04-01T02:03:56;9.35;;;5.43;;
43771;SDS011;59066;54.782;32.024;2023-04-01T02:06:28;7.30;;;4.85;;
43771;SDS011;59066;54.782;32.024;2023-04-01T02:09:02;7.20;;;4.60;;
43771;SDS011;59066;54.782;32.024;2023-04-01T02:11:34;8.82;;;5.68;;
43771;SDS011;59066;54.782;32.024;2023-04-01T02:14:37;7.28;;;4.97;;
43771;SDS011;59066;54.782;32.024;2023-04-01T02:17:17;8.07;;;5.22;;
43771;SDS011;59066;54.782;32.024;2023-04-01T02:19:51;9.57;;;5.90;;
43771;SDS011;59066;54.782;32.024;2023-04-01T02:22:26;9.98;;;5.55;;
43771;SDS011;59066;54.782;32.024;2023-04-01T02:25:07;9.98;;;6.93;;
43771;SDS011;59066;54.782;32.024;2023-04-01T02:27:38;8.38;;;5.38;;
43771;SDS011;59066;54.782;32.024;2023-04-01T02:30:07;9.60;;;5.53;;
43771;SDS011;59066;54.782;32.024;2023-04-01T02:32:35;9.20;;;4.90;;
43771;SDS011;59066;54.782;32.024;2023-04-01T02:35:06;7.30;;;5.63;;
43771;SDS011;59066;54.782;32.024;2023-04-01T02:37:38;8.10;;;5.00;;
43771;SDS011;59066;54.782;32.024;2023-04-01T02:40:11;11.10;;;6.20;;
43771;SDS011;59066;54.782;32.024;2023-04-01T02:42:39;9.70;;;5.22;;
43771;SDS011;59066;54.782;32.024;2023-04-01T02:45:07;11.82;;;6.03;;
43771;SDS011;59066;54.782;32.024;2023-04-01T02:47:35;7.72;;;5.40;;
43771;SDS011;59066;54.782;32.024;2023-04-01T02:50:03;8.52;;;5.40;;
43771;SDS011;59066;54.782;32.024;2023-04-01T02:52:32;10.60;;;6.25;;
43771;SDS011;59066;54.782;32.024;2023-04-01T02:55:01;7.85;;;4.85;;
43771;SDS011;59066;54.782;32.024;2023-04-01T02:57:29;11.45;;;5.18;;
43771;SDS011;59066;54.782;32.024;2023-04-01T02:59:57;7.13;;;5.30;;
43771;SDS011;59066;54.782;32.024;2023-04-01T03:02:24;7.43;;;5.30;;
43771;SDS011;59066;54.782;32.024;2023-04-01T03:04:52;8.48;;;5.30;;
43771;SDS011;59066;54.782;32.024;2023-04-01T03:07:20;9.52;;;5.47;;
43771;SDS011;59066;54.782;32.024;2023-04-01T03:09:48;11.55;;;6.88;;
43771;SDS011;59066;54.782;32.024;2023-04-01T03:12:15;7.25;;;5.00;;
43771;SDS011;59066;54.782;32.024;2023-04-01T03:14:48;7.03;;;5.15;;
43771;SDS011;59066;54.782;32.024;2023-04-01T03:17:16;8.40;;;5.28;;
43771;SDS011;59066;54.782;32.024;2023-04-01T03:19:44;9.07;;;5.25;;
43771;SDS011;59066;54.782;32.024;2023-04-01T03:22:12;9.30;;;5.90;;
43771;SDS011;59066;54.782;32.024;2023-04-01T03:24:40;9.57;;;5.68;;
43771;SDS011;59066;54.782;32.024;2023-04-01T03:27:07;9.55;;;5.40;;
43771;SDS011;59066;54.782;32.024;2023-04-01T03:29:35;10.52;;;5.57;;
43771;SDS011;59066;54.782;32.024;2023-04-01T03:32:03;7.97;;;5.22;;
43771;SDS011;59066;54.782;32.024;2023-04-01T03:34:30;8.02;;;5.40;;
43771;SDS011;59066;54.782;32.024;2023-04-01T03:36:58;9.43;;;5.50;;
43771;SDS011;59066;54.782;32.024;2023-04-01T03:39:26;9.07;;;5.70;;
43771;SDS011;59066;54.782;32.024;2023-04-01T03:41:54;7.95;;;5.95;;
43771;SDS011;59066;54.782;32.024;2023-04-01T03:44:22;9.88;;;6.95;;
43771;SDS011;59066;54.782;32.024;2023-04-01T03:46:52;9.27;;;5.57;;
43771;SDS011;59066;54.782;32.024;2023-04-01T03:49:19;8.68;;;6.22;;
43771;SDS011;59066;54.782;32.024;2023-04-01T03:51:48;8.20;;;6.05;;
43771;SDS011;59066;54.782;32.024;2023-04-01T03:54:15;8.23;;;6.20;;
43771;SDS011;59066;54.782;32.024;2023-04-01T03:56:43;7.57;;;5.35;;
43771;SDS011;59066;54.782;32.024;2023-04-01T03:59:11;13.93;;;7.00;;
43771;SDS011;59066;54.782;32.024;2023-04-01T04:01:40;10.85;;;7.07;;
43771;SDS011;59066;54.782;32.024;2023-04-01T04:04:07;8.10;;;5.72;;
43771;SDS011;59066;54.782;32.024;2023-04-01T04:06:40;8.82;;;5.80;;
43771;SDS011;59066;54.782;32.024;2023-04-01T04:09:07;10.20;;;6.70;;
43771;SDS011;59066;54.782;32.024;2023-04-01T04:11:35;9.80;;;5.95;;
43771;SDS011;59066;54.782;32.024;2023-04-01T04:14:03;10.00;;;6.18;;
43771;SDS011;59066;54.782;32.024;2023-04-01T04:16:30;10.70;;;7.38;;
43771;SDS011;59066;54.782;32.024;2023-04-01T04:19:01;12.60;;;7.05;;
43771;SDS011;59066;54.782;32.024;2023-04-01T04:21:29;9.75;;;7.18;;
43771;SDS011;59066;54.782;32.024;2023-04-01T04:23:59;10.13;;;7.30;;
43771;SDS011;59066;54.782;32.024;2023-04-01T04:26:34;24.98;;;11.32;;
43771;SDS011;59066;54.782;32.024;2023-04-01T04:29:02;11.70;;;7.18;;
43771;SDS011;59066;54.782;32.024;2023-04-01T04:31:30;10.45;;;7.28;;
43771;SDS011;59066;54.782;32.024;2023-04-01T04:34:00;11.00;;;7.35;;
43771;SDS011;59066;54.782;32.024;2023-04-01T04:36:33;10.70;;;7.22;;
43771;SDS011;59066;54.782;32.024;2023-04-01T04:39:01;12.35;;;8.13;;
43771;SDS011;59066;54.782;32.024;2023-04-01T04:41:32;12.75;;;8.65;;
43771;SDS011;59066;54.782;32.024;2023-04-01T04:44:02;11.70;;;7.97;;
43771;SDS011;59066;54.782;32.024;2023-04-01T04:46:29;14.45;;;8.88;;
43771;SDS011;59066;54.782;32.024;2023-04-01T04:49:07;12.38;;;8.80;;
43771;SDS011;59066;54.782;32.024;2023-04-01T04:51:34;12.95;;;8.88;;
43771;SDS011;59066;54.782;32.024;2023-04-01T04:54:03;15.20;;;10.27;;
43771;SDS011;59066;54.782;32.024;2023-04-01T04:56:44;15.15;;;9.43;;
43771;SDS011;59066;54.782;32.024;2023-04-01T04:59:11;15.02;;;8.98;;
43771;SDS011;59066;54.782;32.024;2023-04-01T05:01:49;14.18;;;9.90;;
43771;SDS011;59066;54.782;32.024;2023-04-01T05:04:17;13.05;;;9.05;;
43771;SDS011;59066;54.782;32.024;2023-04-01T05:06:44;17.02;;;11.10;;
43771;SDS011;59066;54.782;32.024;2023-04-01T05:09:12;14.48;;;10.15;;
43771;SDS011;59066;54.782;32.024;2023-04-01T05:11:40;15.60;;;10.65;;
43771;SDS011;59066;54.782;32.024;2023-04-01T05:14:12;15.73;;;10.70;;
43771;SDS011;59066;54.782;32.024;2023-04-01T05:16:46;15.55;;;10.95;;
43771;SDS011;59066;54.782;32.024;2023-04-01T05:19:14;14.70;;;10.32;;
43771;SDS011;59066;54.782;32.024;2023-04-01T05:21:42;16.38;;;10.65;;
43771;SDS011;59066;54.782;32.024;2023-04-01T05:24:09;18.65;;;11.82;;
43771;SDS011;59066;54.782;32.024;2023-04-01T05:26:38;17.15;;;11.15;;
43771;SDS011;59066;54.782;32.024;2023-04-01T05:29:05;18.10;;;11.25;;
43771;SDS011;59066;54.782;32.024;2023-04-01T05:31:33;15.93;;;9.98;;
43771;SDS011;59066;54.782;32.024;2023-04-01T05:34:03;15.23;;;10.95;;
43771;SDS011;59066;54.782;32.024;2023-04-01T05:36:30;15.15;;;10.18;;
43771;SDS011;59066;54.782;32.024;2023-04-01T05:38:58;14.23;;;10.27;;
43771;SDS011;59066;54.782;32.024;2023-04-01T05:41:27;16.48;;;10.75;;
43771;SDS011;59066;54.782;32.024;2023-04-01T05:43:54;13.50;;;10.18;;
43771;SDS011;59066;54.782;32.024;2023-04-01T05:46:42;13.02;;;9.07;;
43771;SDS011;59066;54.782;32.024;2023-04-01T05:49:16;15.23;;;9.75;;
43771;SDS011;59066;54.782;32.024;2023-04-01T05:51:44;15.82;;;9.95;;
43771;SDS011;59066;54.782;32.024;2023-04-01T05:54:14;14.93;;;9.07;;
43771;SDS011;59066;54.782;32.024;2023-04-01T05:56:43;15.20;;;9.90;;
43771;SDS011;59066;54.782;32.024;2023-04-01T05:59:13;19.27;;;11.90;;
43771;SDS011;59066;54.782;32.024;2023-04-01T06:01:40;13.35;;;9.63;;
43771;SDS011;59066;54.782;32.024;2023-04-01T06:04:15;17.35;;;11.68;;
43771;SDS011;59066;54.782;32.024;2023-04-01T06:06:44;15.95;;;10.05;;
43771;SDS011;59066;54.782;32.024;2023-04-01T06:09:13;18.77;;;11.55;;
43771;SDS011;59066;54.782;32.024;2023-04-01T06:17:41;12.45;;;8.98;;
43771;SDS011;59066;54.782;32.024;2023-04-01T06:23:24;13.55;;;8.40;;
43771;SDS011;59066;54.782;32.024;2023-04-01T06:26:18;11.75;;;8.18;;
43771;SDS011;59066;54.782;32.024;2023-04-01T06:30:17;14.20;;;9.25;;
43771;SDS011;59066;54.782;32.024;2023-04-01T06:52:57;12.85;;;10.50;;
43771;SDS011;59066;54.782;32.024;2023-04-01T06:55:52;10.95;;;7.53;;
43771;SDS011;59066;54.782;32.024;2023-04-01T06:59:05;11.20;;;7.35;;
43771;SDS011;59066;54.782;32.024;2023-04-01T07:01:43;11.85;;;8.05;;
43771;SDS011;59066;54.782;32.024;2023-04-01T07:04:19;12.52;;;8.40;;
43771;SDS011;59066;54.782;32.024;2023-04-01T07:09:37;11.77;;;9.38;;
43771;SDS011;59066;54.782;32.024;2023-04-01T07:17:52;10.82;;;7.38;;
43771;SDS011;59066;54.782;32.024;2023-04-01T07:20:25;10.85;;;7.53;;
43771;SDS011;59066;54.782;32.024;2023-04-01T07:23:00;10.40;;;7.85;;
43771;SDS011;59066;54.782;32.024;2023-04-01T07:26:19;11.43;;;8.60;;
43771;SDS011;59066;54.782;32.024;2023-04-01T07:28:52;13.63;;;7.78;;
43771;SDS011;59066;54.782;32.024;2023-04-01T07:31:47;9.88;;;7.57;;
43771;SDS011;59066;54.782;32.024;2023-04-01T07:39:49;9.65;;;6.43;;
43771;SDS011;59066;54.782;32.024;2023-04-01T08:03:12;10.45;;;7.43;;
43771;SDS011;59066;54.782;32.024;2023-04-01T08:06:13;10.85;;;8.32;;
43771;SDS011;59066;54.782;32.024;2023-04-01T08:12:31;10.02;;;8.77;;
43771;SDS011;59066;54.782;32.024;2023-04-01T08:15:49;9.23;;;6.15;;
43771;SDS011;59066;54.782;32.024;2023-04-01T08:21:45;17.75;;;14.70;;
43771;SDS011;59066;54.782;32.024;2023-04-01T08:30:02;10.48;;;7.55;;
43771;SDS011;59066;54.782;32.024;2023-04-01T08:32:39;8.63;;;6.60;;
43771;SDS011;59066;54.782;32.024;2023-04-01T08:38:04;14.43;;;10.23;;
43771;SDS011;59066;54.782;32.024;2023-04-01T08:58:11;16.83;;;14.10;;
43771;SDS011;59066;54.782;32.024;2023-04-01T09:01:43;7.28;;;5.10;;
43771;SDS011;59066;54.782;32.024;2023-04-01T09:16:08;9.18;;;6.90;;
43771;SDS011;59066;54.782;32.024;2023-04-01T09:38:41;8.30;;;6.13;;
43771;SDS011;59066;54.782;32.024;2023-04-01T09:41:28;8.03;;;5.60;;
43771;SDS011;59066;54.782;32.024;2023-04-01T09:44:13;9.10;;;5.95;;
43771;SDS011;59066;54.782;32.024;2023-04-01T09:50:17;5.93;;;4.40;;
43771;SDS011;59066;54.782;32.024;2023-04-01T09:58:47;25.52;;;15.68;;
43771;SDS011;59066;54.782;32.024;2023-04-01T10:07:19;46.90;;;26.27;;
43771;SDS011;59066;54.782;32.024;2023-04-01T10:12:49;12.85;;;7.50;;
43771;SDS011;59066;54.782;32.024;2023-04-01T10:15:39;13.65;;;8.82;;
43771;SDS011;59066;54.782;32.024;2023-04-01T10:27:00;11.82;;;6.40;;
43771;SDS011;59066;54.782;32.024;2023-04-01T10:33:19;6.72;;;4.13;;
43771;SDS011;59066;54.782;32.024;2023-04-01T10:38:59;5.13;;;3.50;;
43771;SDS011;59066;54.782;32.024;2023-04-01T10:53:40;9.77;;;4.82;;
43771;SDS011;59066;54.782;32.024;2023-04-01T11:00:10;7.93;;;4.55;;
43771;SDS011;59066;54.782;32.024;2023-04-01T11:18:22;7.30;;;4.68;;
43771;SDS011;59066;54.782;32.024;2023-04-01T11:45:01;8.57;;;5.55;;
43771;SDS011;59066;54.782;32.024;2023-04-01T12:08:08;13.10;;;9.93;;
43771;SDS011;59066;54.782;32.024;2023-04-01T12:10:50;13.43;;;9.32;;
43771;SDS011;59066;54.782;32.024;2023-04-01T12:13:47;16.35;;;10.13;;
43771;SDS011;59066;54.782;32.024;2023-04-01T12:16:28;15.70;;;10.90;;
43771;SDS011;59066;54.782;32.024;2023-04-01T12:33:36;16.20;;;11.60;;
43771;SDS011;59066;54.782;32.024;2023-04-01T12:41:51;23.73;;;12.02;;
43771;SDS011;59066;54.782;32.024;2023-04-01T12:55:29;29.33;;;18.25;;
43771;SDS011;59066;54.782;32.024;2023-04-01T13:28:01;19.90;;;10.98;;
43771;SDS011;59066;54.782;32.024;2023-04-01T13:30:51;19.27;;;9.55;;
43771;SDS011;59066;54.782;32.024;2023-04-01T13:44:42;20.25;;;10.13;;
43771;SDS011;59066;54.782;32.024;2023-04-01T13:53:19;14.05;;;9.15;;
43771;SDS011;59066;54.782;32.024;2023-04-01T14:02:03;13.23;;;8.88;;
43771;SDS011;59066;54.782;32.024;2023-04-01T14:06:59;22.73;;;10.38;;
43771;SDS011;59066;54.782;32.024;2023-04-01T14:12:41;14.45;;;9.30;;
43771;SDS011;59066;54.782;32.024;2023-04-01T14:26:55;22.95;;;12.50;;
43771;SDS011;59066;54.782;32.024;2023-04-01T14:29:58;22.15;;;10.23;;
43771;SDS011;59066;54.782;32.024;2023-04-01T14:35:35;21.50;;;12.88;;
43771;SDS011;59066;54.782;32.024;2023-04-01T14:49:35;12.90;;;9.48;;
43771;SDS011;59066;54.782;32.024;2023-04-01T14:54:58;17.02;;;10.40;;
43771;SDS011;59066;54.782;32.024;2023-04-01T14:57:28;26.85;;;11.45;;
43771;SDS011;59066;54.782;32.024;2023-04-01T15:00:05;38.42;;;12.25;;
43771;SDS011;59066;54.782;32.024;2023-04-01T15:02:51;20.15;;;13.18;;
43771;SDS011;59066;54.782;32.024;2023-04-01T15:05:45;15.27;;;10.70;;
43771;SDS011;59066;54.782;32.024;2023-04-01T15:08:29;17.63;;;10.10;;
43771;SDS011;59066;54.782;32.024;2023-04-01T15:16:46;16.13;;;11.13;;
43771;SDS011;59066;54.782;32.024;2023-04-01T15:19:48;35.22;;;13.55;;
43771;SDS011;59066;54.782;32.024;2023-04-01T15:22:57;17.75;;;11.52;;
43771;SDS011;59066;54.782;32.024;2023-04-01T15:26:04;16.58;;;11.35;;
43771;SDS011;59066;54.782;32.024;2023-04-01T15:37:37;22.35;;;10.85;;
43771;SDS011;59066;54.782;32.024;2023-04-01T15:46:20;18.13;;;11.45;;
43771;SDS011;59066;54.782;32.024;2023-04-01T15:49:26;23.77;;;11.85;;
43771;SDS011;59066;54.782;32.024;2023-04-01T15:52:11;23.95;;;11.95;;
43771;SDS011;59066;54.782;32.024;2023-04-01T16:02:58;25.77;;;16.30;;
43771;SDS011;59066;54.782;32.024;2023-04-01T16:06:01;25.17;;;16.67;;
43771;SDS011;59066;54.782;32.024;2023-04-01T16:14:55;23.88;;;16.70;;
43771;SDS011;59066;54.782;32.024;2023-04-01T16:20:19;26.60;;;19.33;;
43771;SDS011;59066;54.782;32.024;2023-04-01T16:23:04;25.60;;;18.77;;
43771;SDS011;59066;54.782;32.024;2023-04-01T16:25:44;25.45;;;19.13;;
43771;SDS011;59066;54.782;32.024;2023-04-01T16:28:28;31.52;;;19.90;;
43771;SDS011;59066;54.782;32.024;2023-04-01T16:31:10;31.63;;;21.17;;
43771;SDS011;59066;54.782;32.024;2023-04-01T16:38:52;23.55;;;17.55;;
43771;SDS011;59066;54.782;32.024;2023-04-01T16:41:26;22.90;;;16.40;;
43771;SDS011;59066;54.782;32.024;2023-04-01T16:47:05;25.98;;;18.83;;
43771;SDS011;59066;54.782;32.024;2023-04-01T16:52:17;27.15;;;17.25;;
43771;SDS011;59066;54.782;32.024;2023-04-01T16:55:19;26.23;;;16.83;;
43771;SDS011;59066;54.782;32.024;2023-04-01T16:57:52;23.90;;;16.05;;
43771;SDS011;59066;54.782;32.024;2023-04-01T17:00:27;22.55;;;16.83;;
43771;SDS011;59066;54.782;32.024;2023-04-01T17:08:44;19.77;;;14.95;;
43771;SDS011;59066;54.782;32.024;2023-04-01T17:12:11;20.45;;;15.43;;
43771;SDS011;59066;54.782;32.024;2023-04-01T17:20:31;26.27;;;18.75;;
43771;SDS011;59066;54.782;32.024;2023-04-01T17:25:37;22.15;;;15.93;;
43771;SDS011;59066;54.782;32.024;2023-04-01T17:31:21;19.48;;;15.30;;
43771;SDS011;59066;54.782;32.024;2023-04-01T17:40:12;22.30;;;17.02;;
43771;SDS011;59066;54.782;32.024;2023-04-01T17:42:48;23.27;;;16.85;;
43771;SDS011;59066;54.782;32.024;2023-04-01T17:45:44;22.60;;;16.40;;
43771;SDS011;59066;54.782;32.024;2023-04-01T17:48:29;21.33;;;16.67;;
43771;SDS011;59066;54.782;32.024;2023-04-01T17:56:44;22.23;;;16.57;;
43771;SDS011;59066;54.782;32.024;2023-04-01T18:22:08;20.08;;;15.18;;
43771;SDS011;59066;54.782;32.024;2023-04-01T18:24:41;24.48;;;18.50;;
43771;SDS011;59066;54.782;32.024;2023-04-01T18:27:16;22.85;;;17.98;;
43771;SDS011;59066;54.782;32.024;2023-04-01T18:29:51;20.20;;;15.88;;
43771;SDS011;59066;54.782;32.024;2023-04-01T18:32:33;22.83;;;17.33;;
43771;SDS011;59066;54.782;32.024;2023-04-01T18:46:52;23.00;;;17.63;;
43771;SDS011;59066;54.782;32.024;2023-04-01T18:57:51;23.05;;;17.65;;
43771;SDS011;59066;54.782;32.024;2023-04-01T19:00:22;23.85;;;18.30;;
43771;SDS011;59066;54.782;32.024;2023-04-01T19:03:07;22.85;;;18.02;;
43771;SDS011;59066;54.782;32.024;2023-04-01T19:05:44;25.85;;;18.35;;
43771;SDS011;59066;54.782;32.024;2023-04-01T19:22:12;24.58;;;17.65;;
43771;SDS011;59066;54.782;32.024;2023-04-01T19:24:48;27.02;;;20.42;;
43771;SDS011;59066;54.782;32.024;2023-04-01T19:27:53;25.58;;;18.45;;
43771;SDS011;59066;54.782;32.024;2023-04-01T19:33:41;27.67;;;22.90;;
43771;SDS011;59066;54.782;32.024;2023-04-01T19:36:22;26.67;;;19.75;;
43771;SDS011;59066;54.782;32.024;2023-04-01T19:42:08;29.55;;;21.95;;
43771;SDS011;59066;54.782;32.024;2023-04-01T19:47:39;32.85;;;23.83;;
43771;SDS011;59066;54.782;32.024;2023-04-01T19:52:57;32.83;;;23.40;;
43771;SDS011;59066;54.782;32.024;2023-04-01T19:55:36;34.67;;;26.58;;
43771;SDS011;59066;54.782;32.024;2023-04-01T20:01:18;35.13;;;24.40;;
43771;SDS011;59066;54.782;32.024;2023-04-01T20:04:13;36.72;;;24.83;;
43771;SDS011;59066;54.782;32.024;2023-04-01T20:06:51;34.28;;;24.85;;
43771;SDS011;59066;54.782;32.024;2023-04-01T20:15:34;36.92;;;23.67;;
43771;SDS011;59066;54.782;32.024;2023-04-01T20:18:21;38.75;;;24.15;;
43771;SDS011;59066;54.782;32.024;2023-04-01T20:20:54;39.55;;;27.95;;
43771;SDS011;59066;54.782;32.024;2023-04-01T20:26:20;38.28;;;27.02;;
43771;SDS011;59066;54.782;32.024;2023-04-01T20:31:41;43.72;;;26.50;;
43771;SDS011;59066;54.782;32.024;2023-04-01T20:34:19;39.88;;;25.95;;
43771;SDS011;59066;54.782;32.024;2023-04-01T20:53:44;39.22;;;24.63;;
43771;SDS011;59066;54.782;32.024;2023-04-01T20:56:29;38.13;;;25.23;;
43771;SDS011;59066;54.782;32.024;2023-04-01T21:01:47;36.80;;;22.90;;
43771;SDS011;59066;54.782;32.024;2023-04-01T21:10:21;37.05;;;23.08;;
43771;SDS011;59066;54.782;32.024;2023-04-01T21:26:35;34.35;;;21.48;;
43771;SDS011;59066;54.782;32.024;2023-04-01T21:49:24;40.13;;;26.15;;
43771;SDS011;59066;54.782;32.024;2023-04-01T22:00:39;40.72;;;24.77;;
43771;SDS011;59066;54.782;32.024;2023-04-01T22:14:17;43.78;;;25.27;;
43771;SDS011;59066;54.782;32.024;2023-04-01T22:16:55;42.13;;;24.50;;
43771;SDS011;59066;54.782;32.024;2023-04-01T22:19:39;41.40;;;25.58;;
43771;SDS011;59066;54.782;32.024;2023-04-01T22:27:58;40.85;;;25.05;;
43771;SDS011;59066;54.782;32.024;2023-04-01T22:30:34;40.33;;;25.25;;
43771;SDS011;59066;54.782;32.024;2023-04-01T22:33:15;40.38;;;25.02;;
43771;SDS011;59066;54.782;32.024;2023-04-01T22:35:55;37.88;;;25.55;;
43771;SDS011;59066;54.782;32.024;2023-04-01T22:41:36;36.30;;;21.83;;
43771;SDS011;59066;54.782;32.024;2023-04-01T22:44:05;32.25;;;20.88;;
43771;SDS011;59066;54.782;32.024;2023-04-01T22:47:02;36.72;;;22.95;;
43771;SDS011;59066;54.782;32.024;2023-04-01T22:49:40;33.88;;;20.48;;
43771;SDS011;59066;54.782;32.024;2023-04-01T22:52:16;35.25;;;20.98;;
43771;SDS011;59066;54.782;32.024;2023-04-01T22:54:56;34.63;;;21.23;;
43771;SDS011;59066;54.782;32.024;2023-04-01T23:00:14;32.15;;;22.08;;
43771;SDS011;59066;54.782;32.024;2023-04-01T23:03:36;33.20;;;21.38;;
43771;SDS011;59066;54.782;32.024;2023-04-01T23:05:47;33.53;;;20.50;;
43771;SDS011;59066;54.782;32.024;2023-04-01T23:22:44;29.83;;;20.77;;
43771;SDS011;59066;54.782;32.024;2023-04-01T23:25:22;31.50;;;21.00;;
43771;SDS011;59066;54.782;32.024;2023-04-01T23:38:16;34.00;;;20.95;;
43771;SDS011;59066;54.782;32.024;2023-04-01T23:40:47;32.42;;;25.98;;
43771;SDS011;59066;54.782;32.024;2023-04-01T23:43:22;33.47;;;21.63;;
43771;SDS011;59066;54.782;32.024;2023-04-01T23:45:56;30.48;;;20.40;;
43771;SDS011;59066;54.782;32.024;2023-04-01T23:48:30;32.22;;;21.48;;
43771;SDS011;59066;54.782;32.024;2023-04-01T23:51:03;32.47;;;22.35;;
43771;SDS011;59066;54.782;32.024;2023-04-01T23:53:47;33.67;;;21.92;;
43771;SDS011;59066;54.782;32.024;2023-04-01T23:56:23;32.13;;;25.10;;
43771;SDS011;59066;54.782;32.024;2023-04-01T23:59:02;31.67;;;20.17;;
